Time;durP1;ratioP1;P1;durP2;ratioP2;P2;SDS_P1;SDS_P2;PMS_P1;PMS_P2;Temp;Humidity;BMP_temperature;BMP_pressure;BME280_temperature;BME280_humidity;BME280_pressure;Samples;Min_cycle;Max_cycle;Signal;HPM_P1;HPM_P2
2022/08/17 00:02:05;;;;;;;;;30.25;28.25;;;;;27.68;52.27;98205.22;6212820;28;96846;-55
2022/08/17 00:05:31;;;;;;;;;32.00;31.00;;;;;27.66;52.25;98196.44;6213773;28;96986;-61
2022/08/17 00:08:38;;;;;;;;;31.00;28.40;;;;;27.65;52.30;98197.63;6255303;27;97404;-58
2022/08/17 00:11:43;;;;;;;;;18.80;16.20;;;;;27.64;51.97;98200.75;6243400;27;97312;-57
2022/08/17 00:15:08;;;;;;;;;28.00;25.00;;;;;27.63;52.50;98201.88;6212692;28;98601;-58
2022/08/17 00:18:13;;;;;;;;;29.50;26.50;;;;;27.61;52.03;98205.03;6215193;28;96992;-56
2022/08/17 00:21:40;;;;;;;;;37.00;33.00;;;;;27.57;52.23;98196.59;6230396;27;97773;-58
2022/08/17 00:25:07;;;;;;;;;28.60;26.40;;;;;27.55;52.32;98193.38;6250567;27;96489;-59
2022/08/17 00:28:11;;;;;;;;;31.00;30.00;;;;;27.54;52.05;98196.50;6250901;27;96992;-59
2022/08/17 00:31:14;;;;;;;;;31.00;29.00;;;;;27.51;52.25;98198.00;6221377;27;97425;-59
2022/08/17 00:34:18;;;;;;;;;28.00;27.00;;;;;27.49;52.38;98192.00;6213165;28;96841;-59
2022/08/17 00:37:23;;;;;;;;;27.00;26.00;;;;;27.48;52.43;98201.44;6211658;28;97159;-56
2022/08/17 00:40:26;;;;;;;;;28.00;26.60;;;;;27.46;52.39;98189.91;6233301;27;96797;-58
2022/08/17 00:43:49;;;;;;;;;24.40;24.20;;;;;27.46;52.13;98206.53;6237533;28;96819;-58
2022/08/17 00:46:52;;;;;;;;;31.25;29.00;;;;;27.46;52.87;98209.31;6243268;27;96616;-55
2022/08/17 00:49:55;;;;;;;;;28.00;26.60;;;;;27.44;52.60;98199.72;6237266;27;97088;-56
2022/08/17 00:53:19;;;;;;;;;27.40;24.80;;;;;27.42;52.68;98202.81;6230591;28;96953;-55
2022/08/17 00:56:28;;;;;;;;;31.60;30.00;;;;;27.41;52.74;98201.22;6249803;27;97021;-57
2022/08/17 00:59:37;;;;;;;;;32.00;29.00;;;;;27.40;52.98;98202.38;6253221;27;97498;-56
2022/08/17 01:02:42;;;;;;;;;27.67;27.00;;;;;27.40;53.10;98196.84;6211862;28;97445;-57
2022/08/17 01:05:50;;;;;;;;;29.00;27.00;;;;;27.42;52.95;98205.59;6226359;27;98964;-56
2022/08/17 01:08:58;;;;;;;;;32.60;29.60;;;;;27.41;53.01;98200.41;6237181;28;96542;-54
2022/08/17 01:12:02;;;;;;;;;24.40;23.00;;;;;27.39;52.95;98199.94;6234312;27;97019;-60
2022/08/17 01:15:05;;;;;;;;;23.80;22.20;;;;;27.37;53.23;98199.47;6234253;27;97208;-62
2022/08/17 01:18:12;;;;;;;;;29.80;27.40;;;;;27.35;53.15;98194.31;6227825;27;97464;-58
2022/08/17 01:21:22;;;;;;;;;37.00;33.20;;;;;27.33;53.10;98191.06;6229138;27;97376;-54
2022/08/17 01:24:27;;;;;;;;;28.75;27.50;;;;;27.33;53.51;98188.31;6251436;27;96951;-56
2022/08/17 01:27:31;;;;;;;;;32.00;30.00;;;;;27.33;53.13;98195.81;6219629;27;97095;-58
2022/08/17 01:30:35;;;;;;;;;33.60;30.00;;;;;27.23;53.43;98174.94;6229695;27;97814;-61
2022/08/17 01:34:00;;;;;;;;;30.00;28.50;;;;;27.30;53.03;98183.47;6236044;28;98052;-56
2022/08/17 01:37:04;;;;;;;;;32.50;28.75;;;;;27.29;52.63;98179.09;6244274;27;96629;-57
2022/08/17 01:40:18;;;;;;;;;28.00;27.00;;;;;27.29;52.92;98189.34;6235727;28;97106;-57
2022/08/17 01:43:25;;;;;;;;;30.25;28.25;;;;;27.29;52.74;98195.69;6235195;27;96647;-59
2022/08/17 01:46:32;;;;;;;;;30.60;26.60;;;;;27.31;52.59;98198.13;6236479;28;97134;-58
2022/08/17 01:49:36;;;;;;;;;25.60;23.80;;;;;27.30;52.28;98199.28;6236550;28;97535;-61
2022/08/17 01:52:40;;;;;;;;;31.00;28.00;;;;;26.83;52.36;98122.28;6232369;27;97461;-58
2022/08/17 01:55:49;;;;;;;;;31.00;29.20;;;;;27.27;52.23;98191.69;6235436;27;96600;-57
2022/08/17 01:58:53;;;;;;;;;26.00;24.00;;;;;27.26;52.14;98192.84;6234835;27;97454;-57
2022/08/17 02:01:56;;;;;;;;;34.00;31.25;;;;;27.24;52.33;98190.41;6228279;28;97439;-62
2022/08/17 02:05:00;;;;;;;;;30.80;29.00;;;;;27.22;52.67;98203.00;6237943;27;97481;-59
2022/08/17 02:08:06;;;;;;;;;29.80;27.80;;;;;27.22;52.53;98201.00;6233515;27;97413;-56
2022/08/17 02:11:24;;;;;;;;;28.00;28.00;;;;;27.18;52.71;98202.84;6209928;28;97385;-57
2022/08/17 02:14:27;;;;;;;;;41.25;35.25;;;;;27.19;52.23;98198.13;6215371;28;97550;-55
2022/08/17 02:17:30;;;;;;;;;31.50;29.00;;;;;27.16;52.41;98210.72;6238805;28;97443;-57
2022/08/17 02:20:34;;;;;;;;;26.75;24.00;;;;;27.13;52.10;98214.97;6235232;28;97408;-58
2022/08/17 02:23:48;;;;;;;;;33.75;30.75;;;;;27.11;52.34;98214.53;6260732;27;96965;-59
2022/08/17 02:26:53;;;;;;;;;28.00;27.00;;;;;27.09;52.33;98221.53;6237125;27;97119;-58
2022/08/17 02:29:57;;;;;;;;;30.20;28.20;;;;;27.06;52.46;98217.50;6242603;27;96981;-55
2022/08/17 02:33:00;;;;;;;;;30.00;27.75;;;;;27.04;52.30;98216.22;6237675;28;97186;-56
2022/08/17 02:36:09;;;;;;;;;26.00;25.00;;;;;27.01;52.38;98223.28;6262792;27;97988;-60
2022/08/17 02:39:12;;;;;;;;;30.00;28.80;;;;;27.01;52.32;98228.00;6247975;27;97039;-58
2022/08/17 02:42:17;;;;;;;;;20.75;20.00;;;;;26.99;52.36;98227.53;6238498;27;97495;-58
2022/08/17 02:45:23;;;;;;;;;27.40;24.40;;;;;27.00;52.35;98234.69;6253768;27;97127;-57
2022/08/17 02:48:27;;;;;;;;;25.67;24.33;;;;;26.95;52.09;98229.38;6256400;27;98242;-57
2022/08/17 02:51:35;;;;;;;;;30.00;28.00;;;;;26.91;52.35;98220.97;6264632;27;97102;-59
2022/08/17 02:54:38;;;;;;;;;30.60;28.60;;;;;26.73;52.21;98197.41;6264303;27;97374;-57
2022/08/17 02:57:47;;;;;;;;;29.00;28.00;;;;;26.91;52.58;98223.72;6264673;27;97037;-57
2022/08/17 03:00:50;;;;;;;;;30.00;27.00;;;;;26.90;52.75;98224.88;6236288;28;97936;-55
2022/08/17 03:03:53;;;;;;;;;27.00;26.00;;;;;26.90;52.18;98219.34;6239002;28;96568;-57
2022/08/17 03:06:57;;;;;;;;;34.80;32.00;;;;;26.89;52.41;98214.97;6241384;27;96883;-59
2022/08/17 03:10:00;;;;;;;;;26.80;25.00;;;;;26.88;52.18;98210.56;6244347;27;97088;-59
2022/08/17 03:13:05;;;;;;;;;31.00;27.00;;;;;26.90;52.38;98221.31;6264003;27;97859;-57
2022/08/17 03:16:09;;;;;;;;;30.00;27.00;;;;;26.89;52.34;98217.72;6263154;27;97020;-57
2022/08/17 03:19:12;;;;;;;;;32.00;29.00;;;;;26.89;52.42;98223.25;6251368;27;97173;-58
2022/08/17 03:22:15;;;;;;;;;25.40;24.00;;;;;26.90;52.51;98219.34;6238450;27;97462;-56
2022/08/17 03:25:42;;;;;;;;;26.00;24.00;;;;;26.93;52.16;98228.91;6246240;27;97365;-57
2022/08/17 03:28:47;;;;;;;;;23.50;22.00;;;;;26.94;52.18;98227.75;6263846;27;97411;-57
2022/08/17 03:31:51;;;;;;;;;30.00;29.00;;;;;26.93;52.18;98221.41;6246238;27;97623;-59
2022/08/17 03:34:59;;;;;;;;;29.00;28.00;;;;;26.95;52.19;98221.06;6254323;27;98729;-57
2022/08/17 03:38:03;;;;;;;;;28.50;27.50;;;;;26.93;52.31;98223.38;6239540;27;98225;-66
2022/08/17 03:41:07;;;;;;;;;28.00;24.20;;;;;26.95;52.24;98234.91;6238158;27;97178;-61
2022/08/17 03:44:12;;;;;;;;;27.00;25.25;;;;;26.95;51.99;98226.59;6248464;27;97145;-58
2022/08/17 03:57:21;;;;;;;;;30.00;28.00;;;;;26.79;51.99;98217.34;6235375;27;97177;-56
2022/08/17 04:00:26;;;;;;;;;28.50;27.25;;;;;26.85;52.16;98232.56;6234448;27;97030;-58
2022/08/17 04:03:30;;;;;;;;;31.50;29.50;;;;;26.96;52.27;98251.16;6238171;27;96871;-59
2022/08/17 04:06:33;;;;;;;;;20.50;19.75;;;;;26.96;52.23;98261.44;6237988;27;97155;-55
2022/08/17 04:09:37;;;;;;;;;37.00;32.75;;;;;26.97;51.96;98252.78;6237862;27;98153;-64
2022/08/17 04:12:47;;;;;;;;;27.25;25.25;;;;;26.98;52.06;98259.09;6240232;27;96836;-60
2022/08/17 04:15:52;;;;;;;;;30.20;29.00;;;;;26.98;51.61;98262.69;6245837;27;97587;-65
2022/08/17 04:18:55;;;;;;;;;37.00;32.60;;;;;26.99;51.97;98263.50;6227120;27;97952;-60
2022/08/17 04:22:02;;;;;;;;;41.60;35.40;;;;;27.00;51.65;98265.09;6236640;27;97404;-61
2022/08/17 04:25:09;;;;;;;;;34.60;31.60;;;;;27.01;51.55;98256.47;6214958;27;96754;-56
2022/08/17 04:28:14;;;;;;;;;35.00;32.00;;;;;27.04;51.38;98260.50;6231073;28;97515;-57
2022/08/17 04:31:20;;;;;;;;;30.60;29.60;;;;;27.05;51.43;98262.13;6242119;27;97527;-64
2022/08/17 04:34:23;;;;;;;;;23.50;22.50;;;;;27.04;51.22;98263.25;6219627;28;97297;-59
2022/08/17 04:37:27;;;;;;;;;31.80;30.20;;;;;27.05;51.13;98265.69;6233735;27;97373;-57
2022/08/17 04:43:54;;;;;;;;;26.20;25.20;;;;;27.09;51.11;98274.09;6254032;27;98500;-60
2022/08/17 04:46:59;;;;;;;;;34.20;32.20;;;;;27.12;51.41;98265.13;6260598;27;96641;-61
2022/08/17 04:50:03;;;;;;;;;40.60;33.60;;;;;27.16;51.39;98274.34;6250646;27;97353;-59
2022/08/17 04:53:06;;;;;;;;;32.60;30.60;;;;;27.19;50.89;98272.84;6235051;28;97521;-61
2022/08/17 04:56:11;;;;;;;;;30.00;28.25;;;;;27.23;51.23;98271.00;6236363;28;97358;-61
2022/08/17 04:59:21;;;;;;;;;42.50;36.00;;;;;27.26;51.14;98268.38;6232777;27;97215;-60
2022/08/17 05:02:26;;;;;;;;;33.40;30.40;;;;;27.34;50.95;98274.91;6236862;27;97704;-59
2022/08/17 05:05:32;;;;;;;;;25.20;23.60;;;;;27.41;50.62;98266.88;6234106;27;97185;-58
2022/08/17 05:08:36;;;;;;;;;28.60;28.60;;;;;27.26;50.82;98243.47;6236698;27;98520;-60
2022/08/17 05:11:40;;;;;;;;;28.20;26.60;;;;;27.53;50.54;98286.25;6237670;27;97083;-58
2022/08/17 05:14:47;;;;;;;;;24.00;23.00;;;;;27.58;50.67;98292.38;6236849;27;96560;-57
2022/08/17 05:17:51;;;;;;;;;26.50;25.50;;;;;27.68;50.32;98290.28;6236150;28;96891;-59
2022/08/17 05:20:56;;;;;;;;;26.00;24.00;;;;;27.71;50.35;98282.06;6231272;27;97389;-65
2022/08/17 05:23:59;;;;;;;;;23.60;23.60;;;;;27.75;50.56;98291.31;6254306;27;96679;-55
2022/08/17 05:27:08;;;;;;;;;28.40;26.40;;;;;27.69;50.20;98278.84;6249644;27;97326;-59
2022/08/17 05:30:22;;;;;;;;;27.00;26.60;;;;;27.76;49.98;98272.75;6219647;28;96986;-57
2022/08/17 05:33:29;;;;;;;;;27.80;26.60;;;;;27.94;49.71;98294.28;6236814;28;96981;-61
2022/08/17 05:36:33;;;;;;;;;36.00;32.80;;;;;28.02;49.89;98300.81;6235354;28;97459;-54
2022/08/17 05:39:46;;;;;;;;;23.40;22.40;;;;;28.09;49.76;98294.69;6236313;27;96992;-61
2022/08/17 05:42:50;;;;;;;;;32.80;30.00;;;;;28.16;49.53;98297.69;6237065;27;97403;-60
2022/08/17 05:46:02;;;;;;;;;30.25;29.25;;;;;28.24;49.35;98308.66;6234999;28;98788;-59
2022/08/17 05:49:07;;;;;;;;;21.40;20.00;;;;;28.28;49.64;98301.25;6237249;27;97413;-62
2022/08/17 05:52:22;;;;;;;;;31.60;29.40;;;;;28.34;49.30;98299.84;6240392;28;96878;-60
2022/08/17 05:55:35;;;;;;;;;24.20;23.20;;;;;28.35;48.98;98295.06;6236254;28;96733;-59
2022/08/17 05:58:51;;;;;;;;;30.00;26.25;;;;;28.48;48.78;98301.41;6240977;28;97465;-62
2022/08/17 06:02:02;;;;;;;;;25.00;23.75;;;;;28.56;48.77;98306.78;6240496;28;98249;-59
2022/08/17 06:05:17;;;;;;;;;35.60;32.00;;;;;28.61;48.42;98306.53;6240175;27;96938;-59
2022/08/17 06:08:27;;;;;;;;;28.60;26.60;;;;;28.68;48.62;98306.72;6240405;27;97011;-60
2022/08/17 06:11:36;;;;;;;;;29.40;27.20;;;;;28.73;48.59;98303.72;6222172;28;96701;-63
2022/08/17 06:14:58;;;;;;;;;28.60;26.60;;;;;28.88;48.31;98306.88;6234795;27;96716;-56
2022/08/17 06:18:05;;;;;;;;;35.50;31.75;;;;;28.98;47.75;98309.13;6217594;28;96827;-58
2022/08/17 06:21:15;;;;;;;;;32.00;30.00;;;;;29.08;47.48;98306.63;6240378;28;96728;-58
2022/08/17 06:24:27;;;;;;;;;29.60;28.60;;;;;29.18;47.39;98310.81;6240236;27;97757;-58
2022/08/17 06:27:37;;;;;;;;;36.00;31.50;;;;;29.26;47.51;98304.31;6240139;27;98202;-61
2022/08/17 06:30:56;;;;;;;;;31.00;29.20;;;;;29.27;47.33;98292.81;6221174;27;97263;-59
2022/08/17 06:34:08;;;;;;;;;32.75;29.75;;;;;29.51;47.02;98300.22;6230614;28;97015;-56
2022/08/17 06:37:36;;;;;;;;;31.00;29.75;;;;;29.66;46.96;98304.91;6231702;28;97721;-57
2022/08/17 06:40:59;;;;;;;;;27.50;26.00;;;;;29.83;45.99;98312.06;6238058;27;96797;-63
2022/08/17 06:44:13;;;;;;;;;32.00;28.00;;;;;29.95;45.76;98309.19;6239249;27;97403;-58
2022/08/17 06:47:52;;;;;;;;;29.60;27.20;;;;;30.07;45.11;98302.69;6238681;28;97544;-59
2022/08/17 06:51:03;;;;;;;;;31.60;29.60;;;;;30.21;45.47;98313.28;6235661;28;96942;-58
2022/08/17 06:54:11;;;;;;;;;27.00;26.00;;;;;30.35;45.03;98303.28;6237484;28;97269;-58
2022/08/17 06:57:22;;;;;;;;;30.60;29.00;;;;;30.52;45.03;98304.84;6238918;28;97135;-61
2022/08/17 07:00:32;;;;;;;;;29.60;27.60;;;;;30.67;44.65;98315.09;6237966;27;97450;-54
2022/08/17 07:03:44;;;;;;;;;28.80;28.40;;;;;30.81;44.18;98320.94;6239485;28;97079;-62
2022/08/17 07:06:53;;;;;;;;;29.00;27.00;;;;;30.88;44.05;98329.41;6230878;28;97368;-59
2022/08/17 07:10:00;;;;;;;;;27.00;24.00;;;;;30.92;43.59;98332.25;6223436;28;96477;-57
2022/08/17 07:13:22;;;;;;;;;32.00;30.00;;;;;31.03;43.53;98333.31;6235015;28;97289;-60
2022/08/17 07:16:31;;;;;;;;;31.40;29.00;;;;;31.22;43.45;98332.44;6234417;28;97617;-59
2022/08/17 07:19:39;;;;;;;;;30.80;27.60;;;;;31.42;43.54;98322.84;6237510;27;97102;-58
2022/08/17 07:22:48;;;;;;;;;25.00;22.40;;;;;31.56;42.43;98325.88;6270793;27;96696;-54
2022/08/17 07:26:06;;;;;;;;;29.75;27.75;;;;;31.59;42.18;98315.97;6235946;28;97178;-58
2022/08/17 07:29:14;;;;;;;;;31.40;29.60;;;;;31.80;41.67;98336.63;6239387;27;96859;-59
2022/08/17 07:32:22;;;;;;;;;29.00;26.67;;;;;31.95;41.60;98322.88;6238625;27;97093;-63
2022/08/17 07:35:38;;;;;;;;;25.00;24.00;;;;;32.11;41.37;98329.09;6238814;27;97026;-54
2022/08/17 07:38:57;;;;;;;;;28.50;27.75;;;;;32.23;40.94;98326.91;6227826;28;97835;-58
2022/08/17 07:42:04;;;;;;;;;29.00;27.00;;;;;32.37;41.19;98331.84;6230154;28;97425;-60
2022/08/17 07:48:17;;;;;;;;;31.33;30.00;;;;;32.51;40.78;98323.66;6238218;27;96545;-61
2022/08/17 07:48:35;;;;;;;;;27.60;26.40;;;;;32.75;40.72;98318.78;6231287;27;97252;-60
2022/08/17 07:51:53;;;;;;;;;26.00;24.80;;;;;32.94;40.41;98308.22;6219251;28;96855;-63
2022/08/17 07:54:59;;;;;;;;;26.60;25.00;;;;;33.10;40.27;98314.38;6237494;28;96752;-57
2022/08/17 07:58:04;;;;;;;;;28.00;28.00;;;;;33.23;39.75;98312.13;6266757;27;96762;-61
2022/08/17 08:01:11;;;;;;;;;30.00;29.00;;;;;33.35;40.01;98322.19;6236841;28;97336;-61
2022/08/17 08:04:24;;;;;;;;;25.00;24.00;;;;;33.47;39.41;98322.72;6230685;27;97546;-59
2022/08/17 08:07:53;;;;;;;;;25.00;24.00;;;;;33.66;39.66;98321.66;6212864;28;96496;-58
2022/08/17 08:11:07;;;;;;;;;28.00;25.75;;;;;33.90;39.35;98320.25;6233618;27;97392;-56
2022/08/17 08:14:32;;;;;;;;;32.00;28.00;;;;;34.11;38.73;98323.16;6234756;28;97729;-61
2022/08/17 08:17:48;;;;;;;;;26.00;25.00;;;;;34.30;38.37;98325.72;6234494;28;98273;-57
2022/08/17 08:20:59;;;;;;;;;31.40;29.00;;;;;34.47;38.14;98326.97;6233289;28;96888;-58
2022/08/17 08:24:28;;;;;;;;;30.00;27.00;;;;;34.54;38.35;98323.41;6233074;27;96988;-60
2022/08/17 08:27:46;;;;;;;;;27.00;26.00;;;;;34.75;37.76;98329.91;6228440;28;97321;-61
2022/08/17 08:31:05;;;;;;;;;28.20;25.20;;;;;34.88;37.64;98321.16;6226831;28;97625;-59
2022/08/17 08:34:17;;;;;;;;;28.25;25.25;;;;;35.01;37.66;98314.78;6232592;28;96596;-58
2022/08/17 08:37:51;;;;;;;;;26.40;25.40;;;;;35.17;37.42;98315.22;6232298;28;98073;-60
2022/08/17 08:41:07;;;;;;;;;26.40;24.40;;;;;35.32;37.02;98316.03;6228287;28;97313;-58
2022/08/17 08:44:24;;;;;;;;;26.00;24.00;;;;;35.41;36.74;98307.22;6230034;28;96935;-62
2022/08/17 08:48:11;;;;;;;;;27.00;26.00;;;;;35.51;36.61;98304.44;6233754;28;96678;-53
2022/08/17 08:51:47;;;;;;;;;27.00;25.50;;;;;35.68;36.66;98311.25;6234617;28;96657;-60
2022/08/17 08:55:00;;;;;;;;;25.75;23.75;;;;;35.82;36.18;98313.25;6213178;28;96732;-59
2022/08/17 08:58:08;;;;;;;;;26.40;24.40;;;;;35.85;36.35;98293.59;6212443;28;97518;-59
2022/08/17 09:01:52;;;;;;;;;25.80;24.80;;;;;36.09;35.84;98317.19;6225959;28;96918;-59
2022/08/17 09:05:06;;;;;;;;;27.00;26.00;;;;;36.21;35.94;98304.75;6234512;28;96818;-57
2022/08/17 09:08:30;;;;;;;;;24.00;23.00;;;;;36.33;35.90;98302.31;6235086;28;97480;-58
2022/08/17 09:11:44;;;;;;;;;22.50;22.00;;;;;36.50;35.15;98300.63;6233332;28;97520;-56
2022/08/17 09:15:13;;;;;;;;;28.00;25.40;;;;;36.64;35.12;98305.41;6231929;27;97005;-63
2022/08/17 09:18:21;;;;;;;;;23.60;22.60;;;;;36.71;34.77;98310.97;6209135;28;96860;-59
2022/08/17 09:21:53;;;;;;;;;25.00;23.25;;;;;36.84;34.99;98314.94;6232959;28;97373;-58
2022/08/17 09:25:03;;;;;;;;;19.00;17.00;;;;;37.02;34.69;98303.56;6237134;28;97475;-60
2022/08/17 09:28:15;;;;;;;;;24.75;23.00;;;;;37.17;34.13;98308.72;6237327;28;97235;-60
2022/08/17 09:31:22;;;;;;;;;25.50;23.50;;;;;37.39;34.82;98305.75;6232776;28;96681;-56
2022/08/17 09:34:33;;;;;;;;;27.25;24.25;;;;;37.60;33.43;98312.00;6235448;27;96709;-61
2022/08/17 09:37:51;;;;;;;;;27.50;25.50;;;;;37.73;32.67;98304.66;6212203;28;97232;-59
2022/08/17 09:41:01;;;;;;;;;25.80;22.60;;;;;37.81;32.00;98302.56;6230989;28;97382;-56
2022/08/17 09:44:18;;;;;;;;;23.80;21.80;;;;;37.88;32.08;98302.50;6237149;27;97611;-57
2022/08/17 09:47:31;;;;;;;;;26.00;25.00;;;;;38.01;32.63;98319.69;6231063;28;98610;-55
2022/08/17 09:50:42;;;;;;;;;27.00;25.00;;;;;38.12;32.14;98321.16;6233329;28;96767;-60
2022/08/17 09:54:17;;;;;;;;;27.00;24.60;;;;;38.23;32.09;98309.78;6234420;28;97488;-59
2022/08/17 09:57:54;;;;;;;;;26.50;24.50;;;;;38.35;32.10;98309.25;6234878;28;97502;-60
2022/08/17 10:01:16;;;;;;;;;24.80;23.40;;;;;38.49;30.91;98313.94;6236358;28;96683;-55
2022/08/17 10:04:39;;;;;;;;;26.00;24.00;;;;;38.58;31.60;98314.22;6224337;28;97102;-59
2022/08/17 10:07:54;;;;;;;;;28.40;27.40;;;;;38.65;31.57;98299.25;6236486;28;96783;-63
2022/08/17 10:11:11;;;;;;;;;27.00;25.00;;;;;38.64;31.16;98311.72;6231050;28;96857;-62
2022/08/17 10:14:21;;;;;;;;;26.20;24.60;;;;;38.66;31.13;98304.44;6234549;28;97494;-62
2022/08/17 10:17:58;;;;;;;;;28.40;27.00;;;;;38.66;31.43;98307.25;6234704;28;97454;-59
2022/08/17 10:28:22;;;;;;;;;26.00;25.20;;;;;38.42;30.67;98299.91;6234882;28;97272;-57
2022/08/17 10:31:38;;;;;;;;;28.25;26.25;;;;;38.20;31.37;98285.28;6237322;28;96627;-61
2022/08/17 10:34:56;;;;;;;;;25.75;23.75;;;;;38.26;30.44;98302.53;6238107;27;97060;-59
2022/08/17 10:38:32;;;;;;;;;27.00;25.20;;;;;38.16;30.58;98301.44;6238788;27;97446;-63
2022/08/17 10:41:42;;;;;;;;;26.60;24.00;;;;;38.04;30.72;98304.78;6212655;28;97433;-58
2022/08/17 10:44:55;;;;;;;;;24.00;23.00;;;;;37.90;30.84;98311.31;6214770;28;96560;-58
2022/08/17 10:48:02;;;;;;;;;25.60;24.40;;;;;37.73;30.46;98303.84;6214630;28;96904;-58
2022/08/17 10:51:11;;;;;;;;;22.60;22.00;;;;;37.58;31.37;98300.38;6237491;28;97698;-54
2022/08/17 10:54:37;;;;;;;;;24.60;23.00;;;;;37.54;31.85;98304.44;6239575;28;97027;-55
2022/08/17 10:57:43;;;;;;;;;23.60;21.80;;;;;37.65;31.78;98305.13;6239090;28;97494;-55
2022/08/17 11:01:11;;;;;;;;;25.75;23.75;;;;;37.81;31.27;98298.97;6238810;27;97851;-59
2022/08/17 11:04:32;;;;;;;;;23.20;21.60;;;;;37.76;29.81;98288.16;6238742;28;97541;-56
2022/08/17 11:08:00;;;;;;;;;24.00;23.00;;;;;37.80;29.17;98294.53;6238797;28;98070;-56
2022/08/17 11:11:34;;;;;;;;;22.80;20.60;;;;;37.82;29.34;98289.31;6238337;27;97432;-57
2022/08/17 11:14:59;;;;;;;;;22.00;21.00;;;;;37.98;29.31;98297.97;6236176;28;98060;-57
2022/08/17 11:18:26;;;;;;;;;25.00;24.00;;;;;38.16;28.80;98293.00;6237237;28;97436;-57
2022/08/17 11:21:51;;;;;;;;;22.00;21.00;;;;;38.22;29.19;98291.28;6236227;28;97014;-56
2022/08/17 11:24:57;;;;;;;;;23.00;23.00;;;;;38.19;29.12;98294.16;6239100;27;97202;-59
2022/08/17 11:28:07;;;;;;;;;22.40;21.40;;;;;38.04;29.10;98291.50;6239058;28;96511;-54
2022/08/17 11:31:27;;;;;;;;;22.50;22.00;;;;;37.92;29.37;98303.28;6235467;27;98066;-56
2022/08/17 11:34:43;;;;;;;;;25.75;23.75;;;;;37.75;29.58;98304.25;6233776;28;98371;-57
2022/08/17 11:37:57;;;;;;;;;22.40;21.00;;;;;37.69;29.65;98301.06;6236784;28;97523;-57
2022/08/17 11:41:20;;;;;;;;;22.20;19.20;;;;;37.72;30.70;98303.06;6235812;27;97463;-55
2022/08/17 11:44:37;;;;;;;;;20.40;20.00;;;;;37.80;29.62;98295.34;6234026;27;96894;-56
2022/08/17 11:52:10;;;;;;;;;21.00;19.50;;;;;38.00;28.54;98290.75;6235430;28;97245;-55
2022/08/17 11:55:49;;;;;;;;;20.00;18.50;;;;;37.98;28.65;98286.72;6236205;27;97398;-55
2022/08/17 11:58:52;;;;;;;;;21.50;20.50;;;;;38.01;28.76;98292.34;6233795;28;97202;-55
2022/08/17 12:01:56;;;;;;;;;20.00;19.00;;;;;38.12;28.46;98287.38;6235648;27;97394;-61
2022/08/17 12:05:24;;;;;;;;;20.00;18.50;;;;;38.29;28.36;98293.22;6235713;27;96981;-54
2022/08/17 12:08:32;;;;;;;;;18.60;17.60;;;;;38.55;29.04;98284.09;6235811;28;97119;-57
2022/08/17 12:11:42;;;;;;;;;19.40;18.40;;;;;38.71;27.65;98289.88;6233820;28;97277;-55
2022/08/17 12:15:07;;;;;;;;;20.00;19.00;;;;;38.82;27.54;98284.09;6238342;28;97432;-57
2022/08/17 12:18:20;;;;;;;;;20.00;20.00;;;;;38.83;26.73;98282.88;6237277;27;96548;-57
2022/08/17 12:21:43;;;;;;;;;22.00;21.25;;;;;38.73;26.96;98276.19;6236941;28;97443;-57
2022/08/17 12:24:59;;;;;;;;;21.00;20.00;;;;;38.61;27.39;98285.19;6237099;28;97446;-58
2022/08/17 12:28:03;;;;;;;;;21.40;20.00;;;;;38.45;28.10;98277.38;6236321;28;97454;-55
2022/08/17 12:31:16;;;;;;;;;20.40;19.40;;;;;38.28;27.96;98288.81;6234156;27;97491;-56
2022/08/17 12:34:23;;;;;;;;;19.60;18.60;;;;;38.20;28.23;98284.50;6235580;28;97316;-57
2022/08/17 12:37:30;;;;;;;;;22.50;21.00;;;;;38.21;28.59;98286.91;6236409;28;97512;-59
2022/08/17 12:40:36;;;;;;;;;19.25;18.25;;;;;38.27;27.53;98288.00;6236745;28;96654;-56
2022/08/17 12:43:39;;;;;;;;;18.60;18.60;;;;;38.38;27.86;98279.44;6236905;28;96976;-57
2022/08/17 12:46:50;;;;;;;;;20.00;19.00;;;;;38.50;27.23;98274.09;6237030;28;98048;-54
2022/08/17 12:50:04;;;;;;;;;20.00;18.75;;;;;38.67;26.80;98282.69;6237431;28;97904;-56
2022/08/17 12:53:12;;;;;;;;;19.80;18.20;;;;;38.85;26.95;98278.44;6236993;28;97378;-55
2022/08/17 12:56:17;;;;;;;;;17.00;16.00;;;;;38.96;25.77;98281.91;6237010;28;98779;-60
2022/08/17 12:59:22;;;;;;;;;17.50;17.50;;;;;39.05;24.97;98272.13;6236207;27;97400;-57
2022/08/17 13:02:43;;;;;;;;;18.40;16.00;;;;;39.18;26.03;98271.09;6237336;27;97395;-56
2022/08/17 13:05:56;;;;;;;;;18.20;17.20;;;;;39.31;25.47;98274.09;6235565;28;97557;-56
2022/08/17 13:09:09;;;;;;;;;17.40;16.40;;;;;39.39;24.48;98275.63;6234920;28;98513;-56
2022/08/17 13:12:14;;;;;;;;;20.00;19.00;;;;;39.45;25.50;98276.69;6236636;27;98098;-58
2022/08/17 13:15:22;;;;;;;;;16.80;16.20;;;;;39.32;25.05;98245.50;6236963;28;96942;-54
2022/08/17 13:18:39;;;;;;;;;16.80;16.20;;;;;39.49;24.72;98271.03;6236381;27;97412;-55
2022/08/17 13:21:47;;;;;;;;;19.00;18.00;;;;;39.40;25.14;98265.91;6233720;28;97479;-55
2022/08/17 13:24:53;;;;;;;;;18.00;17.00;;;;;39.26;25.80;98250.00;6234043;28;97011;-55
2022/08/17 13:27:58;;;;;;;;;19.40;18.40;;;;;39.35;25.70;98258.75;6234264;27;97168;-58
2022/08/17 13:31:20;;;;;;;;;18.00;16.40;;;;;39.32;25.62;98250.34;6229308;28;98012;-57
2022/08/17 13:34:39;;;;;;;;;18.20;17.00;;;;;39.24;25.19;98254.50;6231273;27;98337;-59
2022/08/17 13:38:05;;;;;;;;;13.80;13.80;;;;;39.11;25.37;98250.66;6232151;28;97124;-57
2022/08/17 13:41:33;;;;;;;;;16.00;15.40;;;;;39.00;25.68;98248.81;6232965;27;97261;-57
2022/08/17 13:44:39;;;;;;;;;19.00;18.00;;;;;38.90;24.68;98263.09;6231654;27;97216;-55
2022/08/17 13:47:42;;;;;;;;;19.60;18.00;;;;;38.84;25.91;98261.94;6232357;27;96651;-56
2022/08/17 13:50:49;;;;;;;;;17.25;16.25;;;;;38.81;25.67;98257.94;6232665;27;98002;-55
2022/08/17 13:53:58;;;;;;;;;17.00;16.00;;;;;38.91;25.60;98261.84;6231894;28;97437;-56
2022/08/17 13:57:06;;;;;;;;;16.00;15.20;;;;;38.94;25.02;98264.63;6234100;28;97030;-56
2022/08/17 14:00:19;;;;;;;;;15.60;15.00;;;;;38.98;25.31;98273.81;6230199;27;97256;-55
2022/08/17 14:03:23;;;;;;;;;20.40;20.00;;;;;39.01;25.73;98269.34;6231351;27;97461;-56
2022/08/17 14:06:31;;;;;;;;;18.00;17.00;;;;;39.03;26.23;98266.09;6232529;27;97555;-56
2022/08/17 14:09:58;;;;;;;;;17.00;16.00;;;;;38.88;26.25;98238.13;6243903;27;98044;-56
2022/08/17 14:13:01;;;;;;;;;16.60;16.00;;;;;38.90;25.85;98246.94;6243692;27;98019;-60
2022/08/17 14:16:06;;;;;;;;;15.75;14.50;;;;;38.99;25.91;98275.44;6242385;27;97483;-55
2022/08/17 14:19:11;;;;;;;;;17.20;16.20;;;;;38.96;26.10;98278.28;6238650;27;97466;-57
2022/08/17 14:22:22;;;;;;;;;16.00;16.00;;;;;38.88;26.00;98262.72;6246777;27;97177;-57
2022/08/17 14:25:28;;;;;;;;;17.00;16.75;;;;;38.77;25.75;98265.66;6247829;27;97429;-55
2022/08/17 14:28:31;;;;;;;;;17.20;16.20;;;;;38.55;26.62;98253.91;6261350;27;97333;-55
2022/08/17 14:31:39;;;;;;;;;18.00;17.00;;;;;38.62;26.44;98274.72;6242314;27;97453;-56
2022/08/17 14:34:44;;;;;;;;;16.00;15.00;;;;;38.52;26.24;98277.25;6236984;27;96972;-55
2022/08/17 14:37:48;;;;;;;;;16.00;15.00;;;;;38.39;25.59;98272.59;6238954;28;96918;-54
2022/08/17 14:40:52;;;;;;;;;16.40;15.40;;;;;38.08;25.95;98237.97;6236304;27;97972;-54
2022/08/17 14:43:55;;;;;;;;;17.33;16.33;;;;;38.06;26.70;98260.13;6236022;27;97510;-56
2022/08/17 14:46:59;;;;;;;;;17.50;16.00;;;;;37.92;27.65;98258.25;6237139;27;96650;-54
2022/08/17 14:50:04;;;;;;;;;16.00;15.00;;;;;37.85;27.71;98263.13;6233754;28;97490;-54
2022/08/17 14:53:14;;;;;;;;;15.80;15.00;;;;;37.77;28.03;98267.25;6230622;27;97601;-55
2022/08/17 14:56:17;;;;;;;;;17.60;15.60;;;;;37.75;27.59;98278.91;6215278;28;97045;-56
2022/08/17 14:59:21;;;;;;;;;18.40;17.40;;;;;37.70;27.62;98271.72;6214281;28;97474;-55
2022/08/17 15:02:27;;;;;;;;;16.00;15.20;;;;;37.63;27.69;98268.97;6212879;28;96928;-54
2022/08/17 15:05:35;;;;;;;;;18.00;17.00;;;;;37.56;28.86;98271.88;6223924;28;97510;-57